createdAt,value
2022-09-11T00:01:47.702Z,30.20
2022-09-11T00:04:16.181Z,29.90
2022-09-11T00:06:44.368Z,29.90
2022-09-11T00:09:12.699Z,30.10
2022-09-11T00:11:43.181Z,29.80
2022-09-11T00:14:14.533Z,29.60
2022-09-11T00:16:46.420Z,29.70
2022-09-11T00:19:20.543Z,29.60
2022-09-11T00:21:50.875Z,29.40
2022-09-11T00:24:19.060Z,29.60
2022-09-11T00:26:48.518Z,29.80
2022-09-11T00:29:16.678Z,29.40
2022-09-11T00:31:44.857Z,29.40
2022-09-11T00:34:13.238Z,29.60
2022-09-11T00:36:44.615Z,29.40
2022-09-11T00:39:14.775Z,29.20
2022-09-11T00:41:46.730Z,29.10
2022-09-11T00:44:18.554Z,28.80
2022-09-11T00:46:54.205Z,28.60
2022-09-11T00:53:38.759Z,28.10
2022-09-11T00:56:10.955Z,27.90
2022-09-11T00:58:43.423Z,27.80
2022-09-11T01:01:17.765Z,27.70
2022-09-11T01:03:45.971Z,27.60
2022-09-11T01:06:15.070Z,27.60
2022-09-11T01:08:43.754Z,27.60
2022-09-11T01:11:30.335Z,27.50
2022-09-11T01:14:16.977Z,27.40
2022-09-11T01:17:01.066Z,27.30
2022-09-11T01:20:00.131Z,27.20
2022-09-11T01:22:57.164Z,27.10
2022-09-11T01:25:43.611Z,26.90
2022-09-11T01:28:30.621Z,26.80
2022-09-11T01:31:06.135Z,26.80
2022-09-11T01:34:07.687Z,26.70
2022-09-11T01:37:00.179Z,26.60
2022-09-11T01:39:34.349Z,26.60
2022-09-11T01:42:07.533Z,26.40
2022-09-11T01:44:55.508Z,26.40
2022-09-11T01:47:26.516Z,26.30
2022-09-11T01:50:04.292Z,26.30
2022-09-11T01:52:43.773Z,26.20
2022-09-11T01:55:17.769Z,26.10
2022-09-11T01:58:08.499Z,26.00
2022-09-11T02:00:46.321Z,26.00
2022-09-11T02:03:27.686Z,25.90
2022-09-11T02:06:06.941Z,25.90
2022-09-11T02:08:54.946Z,25.90
2022-09-11T02:11:25.170Z,25.90
2022-09-11T02:14:25.769Z,25.90
2022-09-11T02:17:25.370Z,25.90
2022-09-11T02:19:55.761Z,25.80
2022-09-11T02:22:25.497Z,25.70
2022-09-11T02:24:54.190Z,25.60
2022-09-11T02:27:34.226Z,25.50
2022-09-11T02:30:02.587Z,25.40
2022-09-11T02:32:37.231Z,25.30
2022-09-11T02:35:07.466Z,25.30
2022-09-11T02:38:11.871Z,25.30
2022-09-11T02:40:54.181Z,25.20
2022-09-11T02:43:41.900Z,25.20
2022-09-11T02:47:06.591Z,25.20
2022-09-11T02:50:04.841Z,25.10
2022-09-11T02:53:02.927Z,25.10
2022-09-11T02:55:45.560Z,25.00
2022-09-11T02:58:24.047Z,25.00
2022-09-11T03:00:54.111Z,25.00
2022-09-11T03:03:22.450Z,24.90
2022-09-11T03:05:52.311Z,25.00
2022-09-11T03:08:21.029Z,24.90
2022-09-11T03:10:50.617Z,24.90
2022-09-11T03:13:18.730Z,24.90
2022-09-11T03:15:48.180Z,24.80
2022-09-11T03:18:17.475Z,24.80
2022-09-11T03:20:50.755Z,24.80
2022-09-11T03:23:21.927Z,24.80
2022-09-11T03:25:51.546Z,24.80
2022-09-11T03:28:19.908Z,24.70
2022-09-11T03:30:51.230Z,24.70
2022-09-11T03:33:19.755Z,24.60
2022-09-11T03:35:54.059Z,24.60
2022-09-11T03:38:25.036Z,24.50
2022-09-11T03:40:56.036Z,24.50
2022-09-11T03:43:25.953Z,24.50
2022-09-11T03:45:54.181Z,24.40
2022-09-11T03:48:22.281Z,24.40
2022-09-11T03:50:50.302Z,24.30
2022-09-11T03:53:18.920Z,24.30
2022-09-11T03:55:47.898Z,24.30
2022-09-11T03:58:19.569Z,24.30
2022-09-11T04:00:48.678Z,24.30
2022-09-11T04:03:17.727Z,24.30
2022-09-11T04:06:01.875Z,24.30
2022-09-11T04:08:34.095Z,24.30
2022-09-11T04:11:07.256Z,24.30
2022-09-11T04:13:39.563Z,24.30
2022-09-11T04:16:19.591Z,24.30
2022-09-11T04:18:54.768Z,24.20
2022-09-11T04:21:25.005Z,24.20
2022-09-11T04:23:56.853Z,24.20
2022-09-11T04:26:29.823Z,24.20
2022-09-11T04:29:06.357Z,24.10
2022-09-11T04:31:36.994Z,24.20
2022-09-11T04:34:05.645Z,24.10
2022-09-11T04:36:37.626Z,24.10
2022-09-11T04:39:07.956Z,24.10
2022-09-11T04:41:35.991Z,24.10
2022-09-11T04:44:07.688Z,24.10
2022-09-11T04:46:43.510Z,24.00
2022-09-11T04:49:12.315Z,24.00
2022-09-11T04:51:41.167Z,24.00
2022-09-11T04:54:18.392Z,24.00
2022-09-11T04:56:47.186Z,24.00
2022-09-11T04:59:22.680Z,24.00
2022-09-11T05:02:14.324Z,24.00
2022-09-11T05:04:46.570Z,24.00
2022-09-11T05:07:17.350Z,24.00
2022-09-11T05:09:49.346Z,24.10
2022-09-11T05:12:19.210Z,24.10
2022-09-11T05:14:47.311Z,24.10
2022-09-11T05:17:15.333Z,24.10
2022-09-11T05:19:44.826Z,24.20
2022-09-11T05:22:13.026Z,24.20
2022-09-11T05:24:46.821Z,24.30
2022-09-11T05:27:15.095Z,24.30
2022-09-11T05:29:43.070Z,24.30
2022-09-11T05:32:14.251Z,24.40
2022-09-11T05:34:42.971Z,24.40
2022-09-11T05:37:14.797Z,24.50
2022-09-11T05:39:46.967Z,24.60
2022-09-11T05:42:17.096Z,24.70
2022-09-11T05:44:50.905Z,24.80
2022-09-11T05:47:19.231Z,24.90
2022-09-11T05:49:50.959Z,25.00
2022-09-11T05:52:19.395Z,25.00
2022-09-11T05:54:47.361Z,25.10
2022-09-11T05:57:17.339Z,25.20
2022-09-11T05:59:45.899Z,25.30
2022-09-11T06:02:14.915Z,25.30
2022-09-11T06:04:49.700Z,25.40
2022-09-11T06:07:20.453Z,25.40
2022-09-11T06:09:51.035Z,25.50
2022-09-11T06:12:19.529Z,25.50
2022-09-11T06:14:49.094Z,25.50
2022-09-11T06:17:17.791Z,25.60
2022-09-11T06:19:46.039Z,25.70
2022-09-11T06:22:15.399Z,25.70
2022-09-11T06:24:46.113Z,25.80
2022-09-11T06:27:17.509Z,25.80
2022-09-11T06:29:49.511Z,25.90
2022-09-11T06:32:20.353Z,26.00
2022-09-11T06:34:48.741Z,26.10
2022-09-11T06:37:16.639Z,26.10
2022-09-11T06:39:44.724Z,26.20
2022-09-11T06:42:20.992Z,26.40
2022-09-11T06:44:52.426Z,26.40
2022-09-11T06:47:21.638Z,26.50
2022-09-11T06:49:49.864Z,26.60
2022-09-11T06:52:39.450Z,26.60
2022-09-11T06:55:24.292Z,26.60
2022-09-11T06:57:59.037Z,26.60
2022-09-11T07:00:30.432Z,26.50
2022-09-11T07:02:58.920Z,26.60
2022-09-11T07:05:28.263Z,26.60
2022-09-11T07:07:57.518Z,26.70
2022-09-11T07:10:30.146Z,26.80
2022-09-11T07:13:00.960Z,26.90
2022-09-11T07:15:29.243Z,26.80
2022-09-11T07:17:59.396Z,26.70
2022-09-11T07:20:27.886Z,26.70
2022-09-11T07:22:55.906Z,26.80
2022-09-11T07:25:26.270Z,26.70
2022-09-11T07:27:55.390Z,26.70
2022-09-11T07:30:24.150Z,26.80
2022-09-11T07:32:56.194Z,27.00
2022-09-11T07:35:24.702Z,27.10
2022-09-11T07:37:54.292Z,27.10
2022-09-11T07:40:27.078Z,27.10
2022-09-11T07:42:58.097Z,27.30
2022-09-11T07:45:28.948Z,27.30
2022-09-11T07:48:00.396Z,27.30
2022-09-11T07:50:28.427Z,27.50
2022-09-11T07:52:56.509Z,27.60
2022-09-11T07:55:24.975Z,27.70
2022-09-11T07:57:54.546Z,27.50
2022-09-11T08:00:23.986Z,27.40
2022-09-11T08:03:04.786Z,27.50
2022-09-11T08:05:36.828Z,27.60
2022-09-11T08:08:06.657Z,27.70
2022-09-11T08:10:41.437Z,28.00
2022-09-11T08:13:09.845Z,28.10
2022-09-11T08:15:46.065Z,28.30
2022-09-11T08:18:14.541Z,28.40
2022-09-11T08:20:42.670Z,28.50
2022-09-11T08:23:11.980Z,28.60
2022-09-11T08:25:42.150Z,28.70
2022-09-11T08:28:11.916Z,28.90
2022-09-11T08:30:40.239Z,28.80
2022-09-11T08:33:10.070Z,28.90
2022-09-11T08:35:39.136Z,28.90
2022-09-11T08:38:07.444Z,29.00
2022-09-11T08:40:40.076Z,29.20
2022-09-11T08:43:24.180Z,29.40
2022-09-11T08:45:59.760Z,29.50
2022-09-11T08:48:36.290Z,29.70
2022-09-11T08:51:05.483Z,29.90
2022-09-11T08:53:34.551Z,29.90
2022-09-11T08:56:09.082Z,29.50
2022-09-11T08:59:05.733Z,29.60
2022-09-11T09:01:53.755Z,29.80
2022-09-11T09:04:52.280Z,30.00
2022-09-11T09:07:45.318Z,30.20
2022-09-11T09:10:29.584Z,30.20
2022-09-11T09:13:36.933Z,29.90
2022-09-11T09:16:07.715Z,29.90
2022-09-11T09:18:44.415Z,30.10
2022-09-11T09:21:20.705Z,30.60
2022-09-11T09:23:56.942Z,31.00
2022-09-11T09:26:40.431Z,31.30
2022-09-11T09:29:24.248Z,31.20
2022-09-11T09:32:00.431Z,31.20
2022-09-11T09:34:35.523Z,31.30
2022-09-11T09:37:12.773Z,31.40
2022-09-11T09:39:42.728Z,31.60
2022-09-11T09:42:33.044Z,31.80
2022-09-11T09:45:40.126Z,31.70
2022-09-11T09:48:12.204Z,32.10
2022-09-11T09:50:44.826Z,32.40
2022-09-11T09:53:42.001Z,32.40
2022-09-11T09:56:17.003Z,32.40
2022-09-11T09:59:18.510Z,32.80
2022-09-11T10:01:50.117Z,33.20
2022-09-11T10:04:30.810Z,33.50
2022-09-11T10:07:22.405Z,33.90
2022-09-11T10:09:57.221Z,33.70
2022-09-11T10:12:28.757Z,34.10
2022-09-11T10:15:02.604Z,34.50
2022-09-11T10:17:33.644Z,35.20
2022-09-11T10:20:19.995Z,35.20
2022-09-11T10:22:48.517Z,35.50
2022-09-11T10:25:23.002Z,35.30
2022-09-11T10:28:02.865Z,35.50
2022-09-11T10:30:39.963Z,35.70
2022-09-11T10:33:29.014Z,35.80
2022-09-11T10:35:58.962Z,36.10
2022-09-11T10:38:41.434Z,36.30
2022-09-11T10:41:19.959Z,36.60
2022-09-11T10:44:02.137Z,37.10
2022-09-11T10:46:40.845Z,37.70
2022-09-11T10:49:22.751Z,37.80
2022-09-11T10:52:07.166Z,38.60
2022-09-11T10:55:07.417Z,39.50
2022-09-11T10:57:46.018Z,40.20
2022-09-11T11:00:25.052Z,39.50
2022-09-11T11:03:11.738Z,39.80
2022-09-11T11:06:05.594Z,40.30
2022-09-11T11:08:39.874Z,40.80
2022-09-11T11:11:19.343Z,41.40
2022-09-11T11:14:13.708Z,41.40
2022-09-11T11:17:00.190Z,41.30
2022-09-11T11:19:43.541Z,40.90
2022-09-11T11:22:35.057Z,40.60
2022-09-11T11:25:38.706Z,40.70
2022-09-11T11:28:41.758Z,40.80
2022-09-11T11:31:34.923Z,40.80
2022-09-11T11:34:34.978Z,40.70
2022-09-11T11:37:25.411Z,40.50
2022-09-11T11:40:03.318Z,40.40
2022-09-11T11:42:40.318Z,40.20
2022-09-11T11:45:21.532Z,40.60
2022-09-11T11:47:51.736Z,40.90
2022-09-11T11:50:31.916Z,41.20
2022-09-11T11:53:06.680Z,41.30
2022-09-11T11:56:16.943Z,41.80
2022-09-11T11:58:56.742Z,42.10
2022-09-11T12:01:46.865Z,42.20
2022-09-11T12:04:35.099Z,42.10
2022-09-11T12:07:05.209Z,42.60
2022-09-11T12:09:34.047Z,42.60
2022-09-11T12:12:07.989Z,42.60
2022-09-11T12:14:36.553Z,42.70
2022-09-11T12:17:37.972Z,42.60
2022-09-11T12:20:11.843Z,43.20
2022-09-11T12:22:49.570Z,43.20
2022-09-11T12:25:20.238Z,43.50
2022-09-11T12:27:56.583Z,43.60
2022-09-11T12:30:29.476Z,43.00
2022-09-11T12:33:02.933Z,42.50
2022-09-11T12:35:53.325Z,42.20
2022-09-11T12:38:36.048Z,42.20
2022-09-11T12:41:13.938Z,42.20
2022-09-11T12:43:42.667Z,41.90
2022-09-11T12:46:22.408Z,42.10
2022-09-11T12:49:20.513Z,42.30
2022-09-11T12:51:57.099Z,42.00
2022-09-11T12:54:45.059Z,41.90
2022-09-11T12:57:28.667Z,41.80
2022-09-11T13:00:12.522Z,41.80
2022-09-11T13:02:54.301Z,41.80
2022-09-11T13:05:38.629Z,41.50
2022-09-11T13:08:22.926Z,41.50
2022-09-11T13:10:51.797Z,41.70
2022-09-11T13:13:36.124Z,41.90
2022-09-11T13:16:29.151Z,42.30
2022-09-11T13:19:21.533Z,42.60
2022-09-11T13:21:57.439Z,42.30
2022-09-11T13:24:27.398Z,42.00
2022-09-11T13:27:03.007Z,41.90
2022-09-11T13:29:37.188Z,41.60
2022-09-11T13:32:14.280Z,41.70
2022-09-11T13:34:49.173Z,42.20
2022-09-11T13:37:37.153Z,42.70
2022-09-11T13:40:16.666Z,42.70
2022-09-11T13:42:45.181Z,42.60
2022-09-11T13:45:18.616Z,42.20
2022-09-11T13:47:47.138Z,42.50
2022-09-11T13:50:18.318Z,42.40
2022-09-11T13:52:48.022Z,42.40
2022-09-11T13:55:27.314Z,42.70
2022-09-11T13:57:57.967Z,42.30
2022-09-11T14:00:46.416Z,42.10
2022-09-11T14:03:32.005Z,42.10
2022-09-11T14:06:02.231Z,41.90
2022-09-11T14:08:37.343Z,42.00
2022-09-11T14:11:32.980Z,41.60
2022-09-11T14:14:14.911Z,41.10
2022-09-11T14:16:53.615Z,41.20
2022-09-11T14:19:31.436Z,41.00
2022-09-11T14:22:02.992Z,40.70
2022-09-11T14:24:35.483Z,40.50
2022-09-11T14:27:25.644Z,40.40
2022-09-11T14:29:55.931Z,39.90
2022-09-11T14:32:38.241Z,39.60
2022-09-11T14:35:08.991Z,38.80
2022-09-11T14:37:46.102Z,38.20
2022-09-11T14:40:21.593Z,37.40
2022-09-11T14:42:50.171Z,36.70
2022-09-11T14:45:24.996Z,36.30
2022-09-11T14:47:53.750Z,35.70
2022-09-11T14:50:22.144Z,35.30
2022-09-11T14:52:50.188Z,34.90
2022-09-11T14:55:20.471Z,34.60
2022-09-11T14:57:48.613Z,34.40
2022-09-11T15:00:19.705Z,34.30
2022-09-11T15:02:48.138Z,34.10
2022-09-11T15:05:19.729Z,33.70
2022-09-11T15:07:48.984Z,33.50
2022-09-11T15:10:16.988Z,33.20
2022-09-11T15:12:45.188Z,33.00
2022-09-11T15:15:17.481Z,32.70
2022-09-11T15:17:46.767Z,32.60
2022-09-11T15:20:14.654Z,32.50
2022-09-11T15:22:43.107Z,32.30
2022-09-11T15:25:11.851Z,32.20
2022-09-11T15:27:39.986Z,32.10
2022-09-11T15:30:12.171Z,32.00
2022-09-11T15:32:40.139Z,32.00
2022-09-11T15:35:08.479Z,31.90
2022-09-11T15:37:36.599Z,32.00
2022-09-11T15:40:05.039Z,32.00
2022-09-11T15:42:39.702Z,31.90
2022-09-11T15:45:09.122Z,31.80
2022-09-11T15:47:37.212Z,31.80
2022-09-11T15:50:06.550Z,32.10
2022-09-11T15:52:36.478Z,32.30
2022-09-11T15:55:05.532Z,32.50
2022-09-11T15:57:35.116Z,32.70
2022-09-11T16:00:04.752Z,32.80
2022-09-11T16:02:39.921Z,33.00
2022-09-11T16:05:08.176Z,33.10
2022-09-11T16:07:36.303Z,33.30
2022-09-11T16:10:04.877Z,33.70
2022-09-11T16:12:34.655Z,34.10
2022-09-11T16:15:02.949Z,34.00
2022-09-11T16:17:32.784Z,33.80
2022-09-11T16:20:00.953Z,33.50
2022-09-11T16:22:31.809Z,33.00
2022-09-11T16:24:59.936Z,32.70
2022-09-11T16:27:28.525Z,32.30
2022-09-11T16:30:26.217Z,31.80
2022-09-11T16:32:45.714Z,31.30
2022-09-11T16:35:14.557Z,30.80
2022-09-11T16:37:42.681Z,30.40
2022-09-11T16:40:10.903Z,30.00
2022-09-11T16:42:39.121Z,29.80
2022-09-11T16:45:07.884Z,29.60
2022-09-11T16:47:36.021Z,29.30
2022-09-11T16:50:08.218Z,29.10
2022-09-11T16:52:37.526Z,28.90
2022-09-11T16:55:10.106Z,28.80
2022-09-11T16:57:39.462Z,28.70
2022-09-11T17:00:10.517Z,28.70
2022-09-11T17:02:38.652Z,28.50
2022-09-11T17:05:08.554Z,28.40
2022-09-11T17:07:37.384Z,28.30
2022-09-11T17:10:05.625Z,28.20
2022-09-11T17:12:33.873Z,28.20
2022-09-11T17:15:02.492Z,28.20
2022-09-11T17:17:31.933Z,28.10
2022-09-11T17:20:00.066Z,28.00
2022-09-11T17:22:28.308Z,28.00
2022-09-11T17:24:56.536Z,27.90
2022-09-11T17:27:25.178Z,27.90
2022-09-11T17:29:54.122Z,27.60
2022-09-11T17:32:28.291Z,27.60
2022-09-11T17:35:00.425Z,27.60
2022-09-11T17:37:28.501Z,27.60
2022-09-11T17:39:58.950Z,27.70
2022-09-11T17:42:28.289Z,27.70
2022-09-11T17:44:56.883Z,27.60
2022-09-11T17:47:25.905Z,27.60
2022-09-11T17:49:54.191Z,27.60
2022-09-11T17:52:22.782Z,27.60
2022-09-11T17:54:50.984Z,27.60
2022-09-11T17:57:19.217Z,27.60
2022-09-11T17:59:53.449Z,27.50
2022-09-11T18:02:21.859Z,27.50
2022-09-11T18:04:50.964Z,27.50
2022-09-11T18:07:19.601Z,27.50
2022-09-11T18:09:47.695Z,27.50
2022-09-11T18:12:16.311Z,27.40
2022-09-11T18:14:44.734Z,27.40
2022-09-11T18:17:12.836Z,27.40
2022-09-11T18:19:41.009Z,27.30
2022-09-11T18:22:09.848Z,27.20
2022-09-11T18:24:39.858Z,27.00
2022-09-11T18:27:09.829Z,26.90
2022-09-11T18:29:39.948Z,26.80
2022-09-11T18:32:09.891Z,26.90
2022-09-11T18:34:38.681Z,26.90
2022-09-11T18:37:08.565Z,26.80
2022-09-11T18:39:37.678Z,26.80
2022-09-11T18:42:07.428Z,26.80
2022-09-11T18:44:35.794Z,26.80
2022-09-11T18:47:03.867Z,26.70
2022-09-11T18:49:32.419Z,26.60
2022-09-11T18:52:00.576Z,26.70
2022-09-11T18:54:30.628Z,26.70
2022-09-11T18:57:00.290Z,26.70
2022-09-11T18:59:28.415Z,26.70
2022-09-11T19:01:56.628Z,26.70
2022-09-11T19:04:24.960Z,26.60
2022-09-11T19:06:55.945Z,26.60
2022-09-11T19:09:24.173Z,26.60
2022-09-11T19:11:54.327Z,26.60
2022-09-11T19:14:22.616Z,26.60
2022-09-11T19:16:53.539Z,26.50
2022-09-11T19:19:22.264Z,26.50
2022-09-11T19:21:50.341Z,26.50
2022-09-11T19:24:23.352Z,26.40
2022-09-11T19:26:53.785Z,26.30
2022-09-11T19:29:23.351Z,26.30
2022-09-11T19:31:53.341Z,26.30
2022-09-11T19:34:24.494Z,26.20
2022-09-11T19:36:52.828Z,26.20
2022-09-11T19:39:22.341Z,26.10
2022-09-11T19:41:51.071Z,26.10
2022-09-11T19:44:20.549Z,26.10
2022-09-11T19:46:50.358Z,26.10
2022-09-11T19:49:18.525Z,26.00
2022-09-11T19:51:46.527Z,26.00
2022-09-11T19:54:15.152Z,25.90
2022-09-11T19:56:45.090Z,26.00
2022-09-11T19:59:15.007Z,25.90
2022-09-11T20:01:43.817Z,25.80
2022-09-11T20:04:13.927Z,25.80
2022-09-11T20:12:00.809Z,25.70
2022-09-11T20:14:30.435Z,25.70
2022-09-11T20:17:00.414Z,25.70
2022-09-11T20:19:29.300Z,25.70
2022-09-11T20:21:57.481Z,25.70
2022-09-11T20:24:31.177Z,25.70
2022-09-11T20:27:00.586Z,25.70
2022-09-11T20:29:28.879Z,25.70
2022-09-11T20:32:00.514Z,25.70
2022-09-11T20:34:30.546Z,25.70
2022-09-11T20:37:01.517Z,25.70
2022-09-11T20:39:29.931Z,25.60
2022-09-11T20:41:58.326Z,25.60
2022-09-11T20:44:28.380Z,25.50
2022-09-11T20:46:56.927Z,25.50
2022-09-11T20:49:25.179Z,25.50
2022-09-11T20:51:53.484Z,25.50
2022-09-11T20:54:21.453Z,25.40
2022-09-11T20:56:49.476Z,25.40
2022-09-11T20:59:18.036Z,25.40
2022-09-11T21:01:49.749Z,25.40
2022-09-11T21:04:18.316Z,25.30
2022-09-11T21:06:48.007Z,25.30
2022-09-11T21:09:16.826Z,25.30
2022-09-11T21:11:45.310Z,25.30
2022-09-11T21:14:14.771Z,25.30
2022-09-11T21:16:43.193Z,25.30
2022-09-11T21:19:11.441Z,25.30
2022-09-11T21:21:40.538Z,25.30
2022-09-11T21:24:12.159Z,25.30
2022-09-11T21:26:41.475Z,25.20
2022-09-11T21:29:12.732Z,25.20
2022-09-11T21:31:41.114Z,25.20
2022-09-11T21:34:10.106Z,25.20
2022-09-11T21:36:38.505Z,25.20
2022-09-11T21:39:06.657Z,25.20
2022-09-11T21:41:35.170Z,25.10
2022-09-11T21:44:03.787Z,25.10
2022-09-11T21:46:32.170Z,25.10
2022-09-11T21:49:00.505Z,25.10
2022-09-11T21:51:28.744Z,25.10
2022-09-11T21:53:59.523Z,25.10
2022-09-11T21:56:32.034Z,25.10
2022-09-11T21:59:01.227Z,25.00
2022-09-11T22:01:29.759Z,25.00
2022-09-11T22:04:00.729Z,25.00
2022-09-11T22:06:30.002Z,25.00
2022-09-11T22:08:58.114Z,25.00
2022-09-11T22:11:27.012Z,25.00
2022-09-11T22:13:55.553Z,24.90
2022-09-11T22:16:23.880Z,24.90
2022-09-11T22:18:53.505Z,24.90
2022-09-11T22:21:22.259Z,24.90
2022-09-11T22:23:50.555Z,24.90
2022-09-11T22:26:21.640Z,24.80
2022-09-11T22:28:49.909Z,24.80
2022-09-11T22:31:21.632Z,24.80
2022-09-11T22:33:50.005Z,24.70
2022-09-11T22:36:26.426Z,24.80
2022-09-11T22:38:55.038Z,24.70
2022-09-11T22:41:23.553Z,24.70
2022-09-11T22:43:52.035Z,24.60
2022-09-11T22:46:21.366Z,24.60
2022-09-11T22:48:50.204Z,24.60
2022-09-11T22:51:18.234Z,24.60
2022-09-11T22:53:47.226Z,24.50
2022-09-11T22:56:15.349Z,24.40
2022-09-11T22:58:43.620Z,24.40
2022-09-11T23:01:14.202Z,24.40
2022-09-11T23:03:42.317Z,24.40
2022-09-11T23:06:30.346Z,24.40
2022-09-11T23:09:01.030Z,24.30
2022-09-11T23:11:30.012Z,24.30
2022-09-11T23:13:58.263Z,24.30
2022-09-11T23:16:28.355Z,24.30
2022-09-11T23:19:03.946Z,24.30
2022-09-11T23:21:33.721Z,24.30
2022-09-11T23:24:02.286Z,24.30
2022-09-11T23:26:31.301Z,24.20
2022-09-11T23:28:59.546Z,24.20
2022-09-11T23:31:30.455Z,24.10
2022-09-11T23:34:02.113Z,24.10
2022-09-11T23:36:31.508Z,24.00
2022-09-11T23:39:00.034Z,23.90
2022-09-11T23:41:29.136Z,23.90
2022-09-11T23:43:57.097Z,23.90
2022-09-11T23:46:28.137Z,23.90
2022-09-11T23:48:56.361Z,23.90
2022-09-11T23:51:24.454Z,23.90
2022-09-11T23:53:55.211Z,23.90
2022-09-11T23:56:23.370Z,23.90
2022-09-11T23:58:51.906Z,23.90
